Kriti Jade — SVAT6 — position and weather

sailwx.info

Track history (hours):
 
Tides and Currents Weather Stations Pressure Air Temp Water Temp Dewpoint Dewpoint Depression Visibility Wind Speed Wind Dir Waves Ship Positions

Kriti Jade

Last reported at 2018-Jun-22 00:00 UTC. Time now 2018-Jun-22 00:01 UTC.
Position N 38°01' E 023°36'.

Length 183 m; draft 8.3 m.

Type: Ship. MMSI: 240942000.

Date/timePositionNaut miles runAvg speedWind from/ knotsBaromVisibWave heightAir tempDewpointWater temp
2018-Jun-22 00:00N 38°01' E 023°36'0 0.0
2018-Jun-21 23:27N 38°01' E 023°36'0 0.0
2018-Jun-21 23:00N 38°01' E 023°36'0 0.0
2018-Jun-21 22:30N 38°01' E 023°36'0 0.0
2018-Jun-21 22:00N 38°01' E 023°36'0 0.0
2018-Jun-21 21:30N 38°01' E 023°36'0 0.0
2018-Jun-21 21:00N 38°01' E 023°36'0 0.0
2018-Jun-21 20:30N 38°01' E 023°36'0 0.0
2018-Jun-21 20:00N 38°01' E 023°36'0 0.0
2018-Jun-21 19:30N 38°01' E 023°36'0 0.0
2018-Jun-21 19:00N 38°01' E 023°36'0 0.0
2018-Jun-21 18:30N 38°01' E 023°36'0 0.0
2018-Jun-21 18:00N 38°01' E 023°36'0 0.0
2018-Jun-21 17:30N 38°01' E 023°36'0 0.0
2018-Jun-21 17:00N 38°01' E 023°36'0 0.0
2018-Jun-21 16:30N 38°01' E 023°36'0 0.0
2018-Jun-21 16:00N 38°01' E 023°36'0 0.0
2018-Jun-21 15:30N 38°01' E 023°36'0 0.0
2018-Jun-21 15:00N 38°01' E 023°36'0 0.0
2018-Jun-21 14:30N 38°01' E 023°36'0 0.0
2018-Jun-21 14:00N 38°01' E 023°36'0 0.0
2018-Jun-21 13:30N 38°01' E 023°36'0 0.0
2018-Jun-21 13:00N 38°01' E 023°36'0 0.0
2018-Jun-21 12:30N 38°01' E 023°36'0 0.0
2018-Jun-21 12:00N 38°01' E 023°36'0 0.0
2018-Jun-21 11:30N 38°01' E 023°36'0 0.8
2018-Jun-21 11:00N 38°01' E 023°35'3 5.4
2018-Jun-21 10:31N 38°01' E 023°32'0 0.9
2018-Jun-21 10:00N 38°00' E 023°31'0 0.1
2018-Jun-21 09:30N 38°00' E 023°31'0 0.0
2018-Jun-21 09:00N 38°00' E 023°31'0 0.0
2018-Jun-21 08:30N 38°00' E 023°31'0 0.1
2018-Jun-21 08:00N 38°00' E 023°32'0 0.0
2018-Jun-21 07:30N 38°00' E 023°32'0 0.1
2018-Jun-21 07:00N 38°00' E 023°31'0 0.1
2018-Jun-21 06:30N 38°01' E 023°31'1 2.9
2018-Jun-21 06:00N 37°60' E 023°33'4 7.3
2018-Jun-21 05:30N 37°57' E 023°36'2 5.0
2018-Jun-21 05:00N 37°54' E 023°36'4 7.4
2018-Jun-21 04:30N 37°51' E 023°33'1 2.0
2018-Jun-21 03:59N 37°51' E 023°32'0 0.1
2018-Jun-21 03:29N 37°51' E 023°32'0 0.0
2018-Jun-21 02:59N 37°51' E 023°32'0 0.0
2018-Jun-21 02:29N 37°51' E 023°32'0 0.0
2018-Jun-21 01:59N 37°51' E 023°32'0 0.0
2018-Jun-21 01:29N 37°51' E 023°32'0 0.0
2018-Jun-21 00:59N 37°51' E 023°32'0 0.0
2018-Jun-21 00:29N 37°51' E 023°32'0 0.0
2018-Jun-20 23:59N 37°51' E 023°32'0 0.0
2018-Jun-20 23:29N 37°51' E 023°32'0 0.0
2018-Jun-20 22:59N 37°51' E 023°32'0 0.0
2018-Jun-20 22:29N 37°51' E 023°32'0 0.0
2018-Jun-20 21:59N 37°51' E 023°32'0 0.0
2018-Jun-20 21:29N 37°51' E 023°32'0 0.0
2018-Jun-20 20:59N 37°51' E 023°32'0 0.0
2018-Jun-20 20:29N 37°51' E 023°32'0 0.0
2018-Jun-20 19:59N 37°51' E 023°32'0 0.0
2018-Jun-20 19:29N 37°51' E 023°32'0 0.0
2018-Jun-20 18:59N 37°51' E 023°32'0 0.1
2018-Jun-20 18:29N 37°51' E 023°32'0 0.0
2018-Jun-20 17:59N 37°51' E 023°32'0 0.0
2018-Jun-20 17:29N 37°51' E 023°32'0 0.0
2018-Jun-20 16:59N 37°51' E 023°32'0 0.0
2018-Jun-20 16:29N 37°51' E 023°32'0 0.0
2018-Jun-20 15:59N 37°51' E 023°32'0 0.0
2018-Jun-20 15:29N 37°51' E 023°32'0 0.0
2018-Jun-20 14:59N 37°51' E 023°32'0 0.0
2018-Jun-20 14:29N 37°51' E 023°32'0 0.0
2018-Jun-20 13:59N 37°51' E 023°32'0 0.0
2018-Jun-20 13:29N 37°51' E 023°32'0 0.0
2018-Jun-20 12:59N 37°51' E 023°32'0 0.0
2018-Jun-20 12:29N 37°51' E 023°32'0 0.0
2018-Jun-20 11:59N 37°51' E 023°32'0 0.1
2018-Jun-20 11:29N 37°51' E 023°32'0 0.0
2018-Jun-20 10:59N 37°51' E 023°32'0 0.0
2018-Jun-20 10:29N 37°51' E 023°32'0 0.0
2018-Jun-20 09:59N 37°51' E 023°32'0 0.0
2018-Jun-20 09:29N 37°51' E 023°32'0 0.0
2018-Jun-20 08:59N 37°51' E 023°32'0 0.1
2018-Jun-20 08:29N 37°51' E 023°32'0 0.0
2018-Jun-20 07:59N 37°51' E 023°32'0 0.0
2018-Jun-20 07:29N 37°51' E 023°32'0 0.1
2018-Jun-20 06:59N 37°51' E 023°32'0 0.0
2018-Jun-20 06:29N 37°51' E 023°32'0 0.0
2018-Jun-20 05:59N 37°51' E 023°32'0 0.0
2018-Jun-20 05:29N 37°51' E 023°32'0 0.0
2018-Jun-20 04:59N 37°51' E 023°32'0 0.0
2018-Jun-20 04:29N 37°51' E 023°32'0 0.0
2018-Jun-20 03:59N 37°51' E 023°32'0 0.0
2018-Jun-20 03:29N 37°51' E 023°32'0 0.0
2018-Jun-20 02:59N 37°51' E 023°32'0 0.0
2018-Jun-20 02:29N 37°51' E 023°32'0 0.0
2018-Jun-20 01:59N 37°51' E 023°32'0 0.0
2018-Jun-20 01:29N 37°51' E 023°32'0 0.0
2018-Jun-20 00:59N 37°51' E 023°32'0 0.0
2018-Jun-20 00:29N 37°51' E 023°32'0 0.0
2018-Jun-19 23:56N 37°51' E 023°32'0 0.1
2018-Jun-19 23:29N 37°51' E 023°32'0 0.0
2018-Jun-19 22:59N 37°51' E 023°32'0 0.0
2018-Jun-19 22:29N 37°51' E 023°32'0 0.0
2018-Jun-19 21:59N 37°51' E 023°32'0 0.1
2018-Jun-19 21:29N 37°51' E 023°32'0 0.0
2018-Jun-19 20:59N 37°51' E 023°32'0 0.0
2018-Jun-19 20:29N 37°51' E 023°32'0 0.0
2018-Jun-19 19:59N 37°51' E 023°32'0 0.0
2018-Jun-19 19:29N 37°51' E 023°32'0 0.0
2018-Jun-19 18:59N 37°51' E 023°32'0 0.0
2018-Jun-19 18:29N 37°51' E 023°32'0 0.0
2018-Jun-19 17:59N 37°51' E 023°32'0 0.0
2018-Jun-19 17:29N 37°51' E 023°32'0 0.0
2018-Jun-19 16:59N 37°51' E 023°32'0 0.0
2018-Jun-19 16:26N 37°51' E 023°32'0 0.0
2018-Jun-19 15:59N 37°51' E 023°32'0 0.0
2018-Jun-19 15:29N 37°51' E 023°32'0 0.0
2018-Jun-19 14:59N 37°51' E 023°32'0 0.0
2018-Jun-19 14:29N 37°51' E 023°32'0 0.0
2018-Jun-19 13:59N 37°51' E 023°32'0 0.0
2018-Jun-19 13:29N 37°51' E 023°32'0 0.0
2018-Jun-19 12:59N 37°51' E 023°32'0 0.0
2018-Jun-19 12:29N 37°51' E 023°32'0 0.0
2018-Jun-19 11:59N 37°51' E 023°32'0 0.0
2018-Jun-19 11:29N 37°51' E 023°32'0 0.0
2018-Jun-19 10:59N 37°51' E 023°32'0 0.1
2018-Jun-19 10:29N 37°51' E 023°32'0 0.0
2018-Jun-19 09:59N 37°51' E 023°32'0 0.0
2018-Jun-19 09:29N 37°51' E 023°32'0 0.0
2018-Jun-19 08:59N 37°51' E 023°32'0 0.0
2018-Jun-19 08:29N 37°51' E 023°32'0 0.0
2018-Jun-19 07:59N 37°51' E 023°32'0 0.0
2018-Jun-19 07:29N 37°51' E 023°32'0 0.0
2018-Jun-19 06:59N 37°51' E 023°32'0 0.0
2018-Jun-19 06:29N 37°51' E 023°32'0 0.1
2018-Jun-19 05:59N 37°51' E 023°32'0 0.0
2018-Jun-19 05:29N 37°51' E 023°32'0 0.1
2018-Jun-19 04:59N 37°51' E 023°32'0 0.0
2018-Jun-19 04:29N 37°51' E 023°32'0 0.0
2018-Jun-19 03:59N 37°51' E 023°32'0 0.1
2018-Jun-19 03:29N 37°51' E 023°32'0 0.0
2018-Jun-19 02:59N 37°51' E 023°32'0 0.0
2018-Jun-19 02:29N 37°51' E 023°32'0 0.1
2018-Jun-19 01:59N 37°51' E 023°32'0 0.0
2018-Jun-19 01:29N 37°51' E 023°32'0 0.0
2018-Jun-19 00:59N 37°51' E 023°32'0 0.1
2018-Jun-19 00:29N 37°51' E 023°32'0 0.0
2018-Jun-18 23:59N 37°51' E 023°32'0 0.0
2018-Jun-18 23:29N 37°51' E 023°32'0 0.0
2018-Jun-18 22:59N 37°51' E 023°32'0 0.0
2018-Jun-18 22:29N 37°51' E 023°32'0 0.0
2018-Jun-18 21:59N 37°51' E 023°32'0 0.0
2018-Jun-18 21:26N 37°51' E 023°32'0 0.0
2018-Jun-18 20:59N 37°51' E 023°32'0 0.0
2018-Jun-18 20:29N 37°51' E 023°32'0 0.1
2018-Jun-18 19:56N 37°51' E 023°32'0 0.0
2018-Jun-18 19:29N 37°51' E 023°32'0 0.0
2018-Jun-18 18:59N 37°51' E 023°32'0 0.1
2018-Jun-18 18:29N 37°51' E 023°32'0 0.1
2018-Jun-18 17:59N 37°51' E 023°32'0 0.1
2018-Jun-18 17:29N 37°51' E 023°32'0 0.0
2018-Jun-18 16:56N 37°51' E 023°32'0 0.1
2018-Jun-18 16:29N 37°51' E 023°32'0 0.0
2018-Jun-18 15:59N 37°51' E 023°32'0 0.0
2018-Jun-18 15:29N 37°51' E 023°32'0 0.1
2018-Jun-18 14:59N 37°51' E 023°32'0 0.1
2018-Jun-18 14:29N 37°51' E 023°32'0 0.1
2018-Jun-18 13:59N 37°51' E 023°31'0 0.0
2018-Jun-18 13:29N 37°51' E 023°31'0 0.2
2018-Jun-18 12:59N 37°51' E 023°32'0 0.2
2018-Jun-18 12:29N 37°51' E 023°32'0 0.0
2018-Jun-18 11:59N 37°51' E 023°32'0 0.0
2018-Jun-18 11:29N 37°51' E 023°32'0 0.0
2018-Jun-18 10:59N 37°51' E 023°32'0 0.0
2018-Jun-18 10:29N 37°51' E 023°32'0 0.0
2018-Jun-18 09:59N 37°51' E 023°32'0 0.0
2018-Jun-18 09:29N 37°51' E 023°32'0 0.0
2018-Jun-18 08:59N 37°51' E 023°32'0 0.0
2018-Jun-18 08:29N 37°51' E 023°32'0 0.1
2018-Jun-18 07:59N 37°51' E 023°32'0 0.1
2018-Jun-18 07:29N 37°51' E 023°32'0 0.0
2018-Jun-18 06:19N 37°51' E 023°32'0 0.0
2018-Jun-18 05:58N 37°51' E 023°32'0 0.1
2018-Jun-18 05:28N 37°51' E 023°32'0 0.0
2018-Jun-18 04:58N 37°51' E 023°32'0 0.0
2018-Jun-18 04:28N 37°51' E 023°32'0 0.0
2018-Jun-18 03:58N 37°51' E 023°32'0 0.0
2018-Jun-18 03:25N 37°51' E 023°32'0 0.1
2018-Jun-18 02:58N 37°51' E 023°32'0 0.0
2018-Jun-18 02:28N 37°51' E 023°32'0 0.0
2018-Jun-18 01:58N 37°51' E 023°32'0 0.0
2018-Jun-18 01:28N 37°51' E 023°32'0 0.1
2018-Jun-18 00:58N 37°51' E 023°32'0 0.0
2018-Jun-18 00:28N 37°51' E 023°32'0 0.0
2018-Jun-17 23:58N 37°51' E 023°32'0 0.1
2018-Jun-17 23:28N 37°51' E 023°32'0 0.1
2018-Jun-17 22:58N 37°51' E 023°32'0 0.0
2018-Jun-17 22:28N 37°51' E 023°32'0 0.0
2018-Jun-17 21:58N 37°51' E 023°32'0 0.0
2018-Jun-17 21:28N 37°51' E 023°32'0 0.1
2018-Jun-17 20:58N 37°51' E 023°31'0 0.0
2018-Jun-17 20:28N 37°51' E 023°32'0 0.0
2018-Jun-17 19:58N 37°51' E 023°32'0 0.0
2018-Jun-17 19:28N 37°51' E 023°32'0 0.0
2018-Jun-17 18:58N 37°51' E 023°32'0 0.1
2018-Jun-17 18:28N 37°51' E 023°31'0 0.0
2018-Jun-17 17:58N 37°51' E 023°32'0 0.0
2018-Jun-17 17:28N 37°51' E 023°31'0 0.0
2018-Jun-17 16:58N 37°51' E 023°32'0 0.0
2018-Jun-17 16:28N 37°51' E 023°31'0 0.0
2018-Jun-17 15:58N 37°51' E 023°31'0 0.0
2018-Jun-17 15:28N 37°51' E 023°31'0 0.0
2018-Jun-17 14:58N 37°51' E 023°31'0 0.0
2018-Jun-17 14:28N 37°51' E 023°31'0 0.0
2018-Jun-17 13:58N 37°51' E 023°31'0 0.1
2018-Jun-17 13:28N 37°51' E 023°31'0 0.2
2018-Jun-17 12:58N 37°51' E 023°31'0 0.0
2018-Jun-17 12:28N 37°51' E 023°32'0 0.0
2018-Jun-17 11:58N 37°51' E 023°31'0 0.1
2018-Jun-17 11:28N 37°51' E 023°31'0 0.1
2018-Jun-17 10:58N 37°51' E 023°32'0 0.2
2018-Jun-17 10:28N 37°51' E 023°32'0 0.1
2018-Jun-17 09:58N 37°51' E 023°32'0 0.1
2018-Jun-17 09:28N 37°51' E 023°32'0 0.0
2018-Jun-17 08:58N 37°51' E 023°32'0 0.1
2018-Jun-17 08:28N 37°51' E 023°32'0 0.0
2018-Jun-17 07:58N 37°51' E 023°32'0 0.0
2018-Jun-17 07:28N 37°51' E 023°32'0 0.0
2018-Jun-17 06:58N 37°51' E 023°32'0 0.0
2018-Jun-17 06:28N 37°51' E 023°32'0 0.1
2018-Jun-17 05:58N 37°51' E 023°32'0 0.1
2018-Jun-17 05:28N 37°51' E 023°32'0 0.0
2018-Jun-17 04:58N 37°51' E 023°32'0 0.0
2018-Jun-17 04:28N 37°51' E 023°32'0 0.0
2018-Jun-17 03:58N 37°51' E 023°32'0 0.1
2018-Jun-17 03:28N 37°51' E 023°32'0 0.1
2018-Jun-17 02:58N 37°51' E 023°32'0 0.1
2018-Jun-17 02:28N 37°51' E 023°32'0 0.1
2018-Jun-17 01:58N 37°51' E 023°32'0 0.1
2018-Jun-17 01:28N 37°51' E 023°32'0 0.0
2018-Jun-17 00:58N 37°51' E 023°32'0 0.1
2018-Jun-17 00:28N 37°51' E 023°31'0 0.1
2018-Jun-16 23:58N 37°51' E 023°31'0 0.0
2018-Jun-16 23:28N 37°51' E 023°31'0 0.0
2018-Jun-16 22:58N 37°51' E 023°31'0 0.1
2018-Jun-16 22:28N 37°51' E 023°31'0 0.0
2018-Jun-16 21:58N 37°51' E 023°31'0 0.0
2018-Jun-16 21:28N 37°51' E 023°31'0 0.0
2018-Jun-16 20:58N 37°51' E 023°31'0 0.1
2018-Jun-16 20:28N 37°51' E 023°32'0 0.0
2018-Jun-16 19:58N 37°51' E 023°32'0 0.0
2018-Jun-16 19:28N 37°51' E 023°32'0 0.0
2018-Jun-16 18:58N 37°51' E 023°32'0 0.1
2018-Jun-16 18:28N 37°51' E 023°32'0 0.0
2018-Jun-16 17:58N 37°51' E 023°31'0 0.0
2018-Jun-16 17:28N 37°51' E 023°32'0 0.0
2018-Jun-16 16:58N 37°51' E 023°32'0 0.1
2018-Jun-16 16:28N 37°51' E 023°32'0 0.1
2018-Jun-16 15:58N 37°51' E 023°32'0 0.1
2018-Jun-16 15:28N 37°51' E 023°32'0 0.2
2018-Jun-16 14:58N 37°51' E 023°32'0 0.2
2018-Jun-16 14:28N 37°51' E 023°32'0 0.1
2018-Jun-16 13:58N 37°51' E 023°32'0 0.0
2018-Jun-16 13:28N 37°51' E 023°31'0 0.0
2018-Jun-16 12:58N 37°51' E 023°31'0 0.0
2018-Jun-16 12:28N 37°51' E 023°31'0 0.1
2018-Jun-16 11:58N 37°51' E 023°31'0 0.0
2018-Jun-16 11:28N 37°51' E 023°31'0 0.1
2018-Jun-16 10:58N 37°51' E 023°32'0 0.0
2018-Jun-16 10:28N 37°51' E 023°31'0 0.1
2018-Jun-16 09:58N 37°51' E 023°31'0 0.3
2018-Jun-16 09:28N 37°51' E 023°32'0 0.3
2018-Jun-16 08:58N 37°51' E 023°32'0 0.1
2018-Jun-16 08:28N 37°51' E 023°32'0 0.0
2018-Jun-16 08:00N 37°51' E 023°32'2 3.3
2018-Jun-16 07:30N 37°50' E 023°33'4 8.1
2018-Jun-16 07:00N 37°50' E 023°39'510.7
2018-Jun-16 06:30N 37°46' E 023°43'612.4
2018-Jun-16 06:00N 37°40' E 023°45'612.4
2018-Jun-16 05:30N 37°34' E 023°47'  
2018-Jun-12 15:23N 35°59' E 014°52'0 0.0
2018-Jun-12 15:01N 35°59' E 014°52'0 0.0
2018-Jun-12 14:30N 35°59' E 014°52'0 0.0
2018-Jun-12 14:00N 35°59' E 014°52'0 0.0
2018-Jun-12 13:30N 35°59' E 014°52'0 0.0
2018-Jun-12 13:00N 35°59' E 014°52'0 0.0
2018-Jun-12 12:30N 35°59' E 014°52'0 0.0
2018-Jun-12 12:00N 35°59' E 014°52'0 0.0
2018-Jun-12 11:30N 35°59' E 014°52'0 0.1
2018-Jun-12 10:59N 35°59' E 014°52'0 0.1
2018-Jun-12 10:30N 35°59' E 014°52'0 0.1
2018-Jun-12 10:00N 35°59' E 014°52'0 0.1
2018-Jun-12 09:30N 35°59' E 014°52'0 0.1
2018-Jun-12 09:00N 35°59' E 014°52'0 0.0
2018-Jun-12 08:30N 35°59' E 014°52'0 0.0
2018-Jun-12 07:59N 35°59' E 014°52'0 0.0
2018-Jun-12 07:30N 35°59' E 014°52'0 0.0
2018-Jun-12 06:59N 35°59' E 014°52'0 0.0
2018-Jun-12 06:26N 35°59' E 014°52'0 0.0
2018-Jun-12 06:01N 35°59' E 014°52'0 0.0
2018-Jun-12 05:30N 35°59' E 014°52'0 0.0
2018-Jun-12 04:59N 35°59' E 014°52'0 0.0
2018-Jun-12 04:26N 35°59' E 014°52'0 0.0
2018-Jun-12 04:00N 35°59' E 014°52'0 0.1
2018-Jun-12 03:28N 35°59' E 014°52'0 0.1
2018-Jun-12 03:00N 35°59' E 014°52'0 0.1
2018-Jun-12 02:30N 35°59' E 014°52'0 0.1
2018-Jun-12 02:00N 35°59' E 014°52'0 0.1
2018-Jun-12 01:30N 35°59' E 014°52'0 0.0
2018-Jun-12 01:00N 35°59' E 014°52'0 0.0
2018-Jun-12 00:30N 35°59' E 014°52'0 0.1
2018-Jun-12 00:00N 35°59' E 014°52'  
Track history (hours):
 
Tides and Currents Weather Stations Pressure Air Temp Water Temp Dewpoint Dewpoint Depression Visibility Wind Speed Wind Dir Waves Ship Positions

Kriti Jade

Last reported at 2018-Jun-22 00:00 UTC. Time now 2018-Jun-22 00:01 UTC.
Position N 38°01' E 023°36'.

Length 183 m; draft 8.3 m.

Type: Ship. MMSI: 240942000.

Date/timePositionNaut miles runAvg speedWind from/ knotsBaromVisibWave heightAir tempDewpointWater temp
2018-Jun-22 00:00N 38°01' E 023°36'0 0.0
2018-Jun-21 23:27N 38°01' E 023°36'0 0.0
2018-Jun-21 23:00N 38°01' E 023°36'0 0.0
2018-Jun-21 22:30N 38°01' E 023°36'0 0.0
2018-Jun-21 22:00N 38°01' E 023°36'0 0.0
2018-Jun-21 21:30N 38°01' E 023°36'0 0.0
2018-Jun-21 21:00N 38°01' E 023°36'0 0.0
2018-Jun-21 20:30N 38°01' E 023°36'0 0.0
2018-Jun-21 20:00N 38°01' E 023°36'0 0.0
2018-Jun-21 19:30N 38°01' E 023°36'0 0.0
2018-Jun-21 19:00N 38°01' E 023°36'0 0.0
2018-Jun-21 18:30N 38°01' E 023°36'0 0.0
2018-Jun-21 18:00N 38°01' E 023°36'0 0.0
2018-Jun-21 17:30N 38°01' E 023°36'0 0.0
2018-Jun-21 17:00N 38°01' E 023°36'0 0.0
2018-Jun-21 16:30N 38°01' E 023°36'0 0.0
2018-Jun-21 16:00N 38°01' E 023°36'0 0.0
2018-Jun-21 15:30N 38°01' E 023°36'0 0.0
2018-Jun-21 15:00N 38°01' E 023°36'0 0.0
2018-Jun-21 14:30N 38°01' E 023°36'0 0.0
2018-Jun-21 14:00N 38°01' E 023°36'0 0.0
2018-Jun-21 13:30N 38°01' E 023°36'0 0.0
2018-Jun-21 13:00N 38°01' E 023°36'0 0.0
2018-Jun-21 12:30N 38°01' E 023°36'0 0.0
2018-Jun-21 12:00N 38°01' E 023°36'0 0.0
2018-Jun-21 11:30N 38°01' E 023°36'0 0.8
2018-Jun-21 11:00N 38°01' E 023°35'3 5.4
2018-Jun-21 10:31N 38°01' E 023°32'0 0.9
2018-Jun-21 10:00N 38°00' E 023°31'0 0.1
2018-Jun-21 09:30N 38°00' E 023°31'0 0.0
2018-Jun-21 09:00N 38°00' E 023°31'0 0.0
2018-Jun-21 08:30N 38°00' E 023°31'0 0.1
2018-Jun-21 08:00N 38°00' E 023°32'0 0.0
2018-Jun-21 07:30N 38°00' E 023°32'0 0.1
2018-Jun-21 07:00N 38°00' E 023°31'0 0.1
2018-Jun-21 06:30N 38°01' E 023°31'1 2.9
2018-Jun-21 06:00N 37°60' E 023°33'4 7.3
2018-Jun-21 05:30N 37°57' E 023°36'2 5.0
2018-Jun-21 05:00N 37°54' E 023°36'4 7.4
2018-Jun-21 04:30N 37°51' E 023°33'1 2.0
2018-Jun-21 03:59N 37°51' E 023°32'0 0.1
2018-Jun-21 03:29N 37°51' E 023°32'0 0.0
2018-Jun-21 02:59N 37°51' E 023°32'0 0.0
2018-Jun-21 02:29N 37°51' E 023°32'0 0.0
2018-Jun-21 01:59N 37°51' E 023°32'0 0.0
2018-Jun-21 01:29N 37°51' E 023°32'0 0.0
2018-Jun-21 00:59N 37°51' E 023°32'0 0.0
2018-Jun-21 00:29N 37°51' E 023°32'0 0.0
2018-Jun-20 23:59N 37°51' E 023°32'0 0.0
2018-Jun-20 23:29N 37°51' E 023°32'0 0.0
2018-Jun-20 22:59N 37°51' E 023°32'0 0.0
2018-Jun-20 22:29N 37°51' E 023°32'0 0.0
2018-Jun-20 21:59N 37°51' E 023°32'0 0.0
2018-Jun-20 21:29N 37°51' E 023°32'0 0.0
2018-Jun-20 20:59N 37°51' E 023°32'0 0.0
2018-Jun-20 20:29N 37°51' E 023°32'0 0.0
2018-Jun-20 19:59N 37°51' E 023°32'0 0.0
2018-Jun-20 19:29N 37°51' E 023°32'0 0.0
2018-Jun-20 18:59N 37°51' E 023°32'0 0.1
2018-Jun-20 18:29N 37°51' E 023°32'0 0.0
2018-Jun-20 17:59N 37°51' E 023°32'0 0.0
2018-Jun-20 17:29N 37°51' E 023°32'0 0.0
2018-Jun-20 16:59N 37°51' E 023°32'0 0.0
2018-Jun-20 16:29N 37°51' E 023°32'0 0.0
2018-Jun-20 15:59N 37°51' E 023°32'0 0.0
2018-Jun-20 15:29N 37°51' E 023°32'0 0.0
2018-Jun-20 14:59N 37°51' E 023°32'0 0.0
2018-Jun-20 14:29N 37°51' E 023°32'0 0.0
2018-Jun-20 13:59N 37°51' E 023°32'0 0.0
2018-Jun-20 13:29N 37°51' E 023°32'0 0.0
2018-Jun-20 12:59N 37°51' E 023°32'0 0.0
2018-Jun-20 12:29N 37°51' E 023°32'0 0.0
2018-Jun-20 11:59N 37°51' E 023°32'0 0.1
2018-Jun-20 11:29N 37°51' E 023°32'0 0.0
2018-Jun-20 10:59N 37°51' E 023°32'0 0.0
2018-Jun-20 10:29N 37°51' E 023°32'0 0.0
2018-Jun-20 09:59N 37°51' E 023°32'0 0.0
2018-Jun-20 09:29N 37°51' E 023°32'0 0.0
2018-Jun-20 08:59N 37°51' E 023°32'0 0.1
2018-Jun-20 08:29N 37°51' E 023°32'0 0.0
2018-Jun-20 07:59N 37°51' E 023°32'0 0.0
2018-Jun-20 07:29N 37°51' E 023°32'0 0.1
2018-Jun-20 06:59N 37°51' E 023°32'0 0.0
2018-Jun-20 06:29N 37°51' E 023°32'0 0.0
2018-Jun-20 05:59N 37°51' E 023°32'0 0.0
2018-Jun-20 05:29N 37°51' E 023°32'0 0.0
2018-Jun-20 04:59N 37°51' E 023°32'0 0.0
2018-Jun-20 04:29N 37°51' E 023°32'0 0.0
2018-Jun-20 03:59N 37°51' E 023°32'0 0.0
2018-Jun-20 03:29N 37°51' E 023°32'0 0.0
2018-Jun-20 02:59N 37°51' E 023°32'0 0.0
2018-Jun-20 02:29N 37°51' E 023°32'0 0.0
2018-Jun-20 01:59N 37°51' E 023°32'0 0.0
2018-Jun-20 01:29N 37°51' E 023°32'0 0.0
2018-Jun-20 00:59N 37°51' E 023°32'0 0.0
2018-Jun-20 00:29N 37°51' E 023°32'0 0.0
2018-Jun-19 23:56N 37°51' E 023°32'0 0.1
2018-Jun-19 23:29N 37°51' E 023°32'0 0.0
2018-Jun-19 22:59N 37°51' E 023°32'0 0.0
2018-Jun-19 22:29N 37°51' E 023°32'0 0.0
2018-Jun-19 21:59N 37°51' E 023°32'0 0.1
2018-Jun-19 21:29N 37°51' E 023°32'0 0.0
2018-Jun-19 20:59N 37°51' E 023°32'0 0.0
2018-Jun-19 20:29N 37°51' E 023°32'0 0.0
2018-Jun-19 19:59N 37°51' E 023°32'0 0.0
2018-Jun-19 19:29N 37°51' E 023°32'0 0.0
2018-Jun-19 18:59N 37°51' E 023°32'0 0.0
2018-Jun-19 18:29N 37°51' E 023°32'0 0.0
2018-Jun-19 17:59N 37°51' E 023°32'0 0.0
2018-Jun-19 17:29N 37°51' E 023°32'0 0.0
2018-Jun-19 16:59N 37°51' E 023°32'0 0.0
2018-Jun-19 16:26N 37°51' E 023°32'0 0.0
2018-Jun-19 15:59N 37°51' E 023°32'0 0.0
2018-Jun-19 15:29N 37°51' E 023°32'0 0.0
2018-Jun-19 14:59N 37°51' E 023°32'0 0.0
2018-Jun-19 14:29N 37°51' E 023°32'0 0.0
2018-Jun-19 13:59N 37°51' E 023°32'0 0.0
2018-Jun-19 13:29N 37°51' E 023°32'0 0.0
2018-Jun-19 12:59N 37°51' E 023°32'0 0.0
2018-Jun-19 12:29N 37°51' E 023°32'0 0.0
2018-Jun-19 11:59N 37°51' E 023°32'0 0.0
2018-Jun-19 11:29N 37°51' E 023°32'0 0.0
2018-Jun-19 10:59N 37°51' E 023°32'0 0.1
2018-Jun-19 10:29N 37°51' E 023°32'0 0.0
2018-Jun-19 09:59N 37°51' E 023°32'0 0.0
2018-Jun-19 09:29N 37°51' E 023°32'0 0.0
2018-Jun-19 08:59N 37°51' E 023°32'0 0.0
2018-Jun-19 08:29N 37°51' E 023°32'0 0.0
2018-Jun-19 07:59N 37°51' E 023°32'0 0.0
2018-Jun-19 07:29N 37°51' E 023°32'0 0.0
2018-Jun-19 06:59N 37°51' E 023°32'0 0.0
2018-Jun-19 06:29N 37°51' E 023°32'0 0.1
2018-Jun-19 05:59N 37°51' E 023°32'0 0.0
2018-Jun-19 05:29N 37°51' E 023°32'0 0.1
2018-Jun-19 04:59N 37°51' E 023°32'0 0.0
2018-Jun-19 04:29N 37°51' E 023°32'0 0.0
2018-Jun-19 03:59N 37°51' E 023°32'0 0.1
2018-Jun-19 03:29N 37°51' E 023°32'0 0.0
2018-Jun-19 02:59N 37°51' E 023°32'0 0.0
2018-Jun-19 02:29N 37°51' E 023°32'0 0.1
2018-Jun-19 01:59N 37°51' E 023°32'0 0.0
2018-Jun-19 01:29N 37°51' E 023°32'0 0.0
2018-Jun-19 00:59N 37°51' E 023°32'0 0.1
2018-Jun-19 00:29N 37°51' E 023°32'0 0.0
2018-Jun-18 23:59N 37°51' E 023°32'0 0.0
2018-Jun-18 23:29N 37°51' E 023°32'0 0.0
2018-Jun-18 22:59N 37°51' E 023°32'0 0.0
2018-Jun-18 22:29N 37°51' E 023°32'0 0.0
2018-Jun-18 21:59N 37°51' E 023°32'0 0.0
2018-Jun-18 21:26N 37°51' E 023°32'0 0.0
2018-Jun-18 20:59N 37°51' E 023°32'0 0.0
2018-Jun-18 20:29N 37°51' E 023°32'0 0.1
2018-Jun-18 19:56N 37°51' E 023°32'0 0.0
2018-Jun-18 19:29N 37°51' E 023°32'0 0.0
2018-Jun-18 18:59N 37°51' E 023°32'0 0.1
2018-Jun-18 18:29N 37°51' E 023°32'0 0.1
2018-Jun-18 17:59N 37°51' E 023°32'0 0.1
2018-Jun-18 17:29N 37°51' E 023°32'0 0.0
2018-Jun-18 16:56N 37°51' E 023°32'0 0.1
2018-Jun-18 16:29N 37°51' E 023°32'0 0.0
2018-Jun-18 15:59N 37°51' E 023°32'0 0.0
2018-Jun-18 15:29N 37°51' E 023°32'0 0.1
2018-Jun-18 14:59N 37°51' E 023°32'0 0.1
2018-Jun-18 14:29N 37°51' E 023°32'0 0.1
2018-Jun-18 13:59N 37°51' E 023°31'0 0.0
2018-Jun-18 13:29N 37°51' E 023°31'0 0.2
2018-Jun-18 12:59N 37°51' E 023°32'0 0.2
2018-Jun-18 12:29N 37°51' E 023°32'0 0.0
2018-Jun-18 11:59N 37°51' E 023°32'0 0.0
2018-Jun-18 11:29N 37°51' E 023°32'0 0.0
2018-Jun-18 10:59N 37°51' E 023°32'0 0.0
2018-Jun-18 10:29N 37°51' E 023°32'0 0.0
2018-Jun-18 09:59N 37°51' E 023°32'0 0.0
2018-Jun-18 09:29N 37°51' E 023°32'0 0.0
2018-Jun-18 08:59N 37°51' E 023°32'0 0.0
2018-Jun-18 08:29N 37°51' E 023°32'0 0.1
2018-Jun-18 07:59N 37°51' E 023°32'0 0.1
2018-Jun-18 07:29N 37°51' E 023°32'0 0.0
2018-Jun-18 06:19N 37°51' E 023°32'0 0.0
2018-Jun-18 05:58N 37°51' E 023°32'0 0.1
2018-Jun-18 05:28N 37°51' E 023°32'0 0.0
2018-Jun-18 04:58N 37°51' E 023°32'0 0.0
2018-Jun-18 04:28N 37°51' E 023°32'0 0.0
2018-Jun-18 03:58N 37°51' E 023°32'0 0.0
2018-Jun-18 03:25N 37°51' E 023°32'0 0.1
2018-Jun-18 02:58N 37°51' E 023°32'0 0.0
2018-Jun-18 02:28N 37°51' E 023°32'0 0.0
2018-Jun-18 01:58N 37°51' E 023°32'0 0.0
2018-Jun-18 01:28N 37°51' E 023°32'0 0.1
2018-Jun-18 00:58N 37°51' E 023°32'0 0.0
2018-Jun-18 00:28N 37°51' E 023°32'0 0.0
2018-Jun-17 23:58N 37°51' E 023°32'0 0.1
2018-Jun-17 23:28N 37°51' E 023°32'0 0.1
2018-Jun-17 22:58N 37°51' E 023°32'0 0.0
2018-Jun-17 22:28N 37°51' E 023°32'0 0.0
2018-Jun-17 21:58N 37°51' E 023°32'0 0.0
2018-Jun-17 21:28N 37°51' E 023°32'0 0.1
2018-Jun-17 20:58N 37°51' E 023°31'0 0.0
2018-Jun-17 20:28N 37°51' E 023°32'0 0.0
2018-Jun-17 19:58N 37°51' E 023°32'0 0.0
2018-Jun-17 19:28N 37°51' E 023°32'0 0.0
2018-Jun-17 18:58N 37°51' E 023°32'0 0.1
2018-Jun-17 18:28N 37°51' E 023°31'0 0.0
2018-Jun-17 17:58N 37°51' E 023°32'0 0.0
2018-Jun-17 17:28N 37°51' E 023°31'0 0.0
2018-Jun-17 16:58N 37°51' E 023°32'0 0.0
2018-Jun-17 16:28N 37°51' E 023°31'0 0.0
2018-Jun-17 15:58N 37°51' E 023°31'0 0.0
2018-Jun-17 15:28N 37°51' E 023°31'0 0.0
2018-Jun-17 14:58N 37°51' E 023°31'0 0.0
2018-Jun-17 14:28N 37°51' E 023°31'0 0.0
2018-Jun-17 13:58N 37°51' E 023°31'0 0.1
2018-Jun-17 13:28N 37°51' E 023°31'0 0.2
2018-Jun-17 12:58N 37°51' E 023°31'0 0.0
2018-Jun-17 12:28N 37°51' E 023°32'0 0.0
2018-Jun-17 11:58N 37°51' E 023°31'0 0.1
2018-Jun-17 11:28N 37°51' E 023°31'0 0.1
2018-Jun-17 10:58N 37°51' E 023°32'0 0.2
2018-Jun-17 10:28N 37°51' E 023°32'0 0.1
2018-Jun-17 09:58N 37°51' E 023°32'0 0.1
2018-Jun-17 09:28N 37°51' E 023°32'0 0.0
2018-Jun-17 08:58N 37°51' E 023°32'0 0.1
2018-Jun-17 08:28N 37°51' E 023°32'0 0.0
2018-Jun-17 07:58N 37°51' E 023°32'0 0.0
2018-Jun-17 07:28N 37°51' E 023°32'0 0.0
2018-Jun-17 06:58N 37°51' E 023°32'0 0.0
2018-Jun-17 06:28N 37°51' E 023°32'0 0.1
2018-Jun-17 05:58N 37°51' E 023°32'0 0.1
2018-Jun-17 05:28N 37°51' E 023°32'0 0.0
2018-Jun-17 04:58N 37°51' E 023°32'0 0.0
2018-Jun-17 04:28N 37°51' E 023°32'0 0.0
2018-Jun-17 03:58N 37°51' E 023°32'0 0.1
2018-Jun-17 03:28N 37°51' E 023°32'0 0.1
2018-Jun-17 02:58N 37°51' E 023°32'0 0.1
2018-Jun-17 02:28N 37°51' E 023°32'0 0.1
2018-Jun-17 01:58N 37°51' E 023°32'0 0.1
2018-Jun-17 01:28N 37°51' E 023°32'0 0.0
2018-Jun-17 00:58N 37°51' E 023°32'0 0.1
2018-Jun-17 00:28N 37°51' E 023°31'0 0.1
2018-Jun-16 23:58N 37°51' E 023°31'0 0.0
2018-Jun-16 23:28N 37°51' E 023°31'0 0.0
2018-Jun-16 22:58N 37°51' E 023°31'0 0.1
2018-Jun-16 22:28N 37°51' E 023°31'0 0.0
2018-Jun-16 21:58N 37°51' E 023°31'0 0.0
2018-Jun-16 21:28N 37°51' E 023°31'0 0.0
2018-Jun-16 20:58N 37°51' E 023°31'0 0.1
2018-Jun-16 20:28N 37°51' E 023°32'0 0.0
2018-Jun-16 19:58N 37°51' E 023°32'0 0.0
2018-Jun-16 19:28N 37°51' E 023°32'0 0.0
2018-Jun-16 18:58N 37°51' E 023°32'0 0.1
2018-Jun-16 18:28N 37°51' E 023°32'0 0.0
2018-Jun-16 17:58N 37°51' E 023°31'0 0.0
2018-Jun-16 17:28N 37°51' E 023°32'0 0.0
2018-Jun-16 16:58N 37°51' E 023°32'0 0.1
2018-Jun-16 16:28N 37°51' E 023°32'0 0.1
2018-Jun-16 15:58N 37°51' E 023°32'0 0.1
2018-Jun-16 15:28N 37°51' E 023°32'0 0.2
2018-Jun-16 14:58N 37°51' E 023°32'0 0.2
2018-Jun-16 14:28N 37°51' E 023°32'0 0.1
2018-Jun-16 13:58N 37°51' E 023°32'0 0.0
2018-Jun-16 13:28N 37°51' E 023°31'0 0.0
2018-Jun-16 12:58N 37°51' E 023°31'0 0.0
2018-Jun-16 12:28N 37°51' E 023°31'0 0.1
2018-Jun-16 11:58N 37°51' E 023°31'0 0.0
2018-Jun-16 11:28N 37°51' E 023°31'0 0.1
2018-Jun-16 10:58N 37°51' E 023°32'0 0.0
2018-Jun-16 10:28N 37°51' E 023°31'0 0.1
2018-Jun-16 09:58N 37°51' E 023°31'0 0.3
2018-Jun-16 09:28N 37°51' E 023°32'0 0.3
2018-Jun-16 08:58N 37°51' E 023°32'0 0.1
2018-Jun-16 08:28N 37°51' E 023°32'0 0.0
2018-Jun-16 08:00N 37°51' E 023°32'2 3.3
2018-Jun-16 07:30N 37°50' E 023°33'4 8.1
2018-Jun-16 07:00N 37°50' E 023°39'510.7
2018-Jun-16 06:30N 37°46' E 023°43'612.4
2018-Jun-16 06:00N 37°40' E 023°45'612.4
2018-Jun-16 05:30N 37°34' E 023°47'  
2018-Jun-12 15:23N 35°59' E 014°52'0 0.0
2018-Jun-12 15:01N 35°59' E 014°52'0 0.0
2018-Jun-12 14:30N 35°59' E 014°52'0 0.0
2018-Jun-12 14:00N 35°59' E 014°52'0 0.0
2018-Jun-12 13:30N 35°59' E 014°52'0 0.0
2018-Jun-12 13:00N 35°59' E 014°52'0 0.0
2018-Jun-12 12:30N 35°59' E 014°52'0 0.0
2018-Jun-12 12:00N 35°59' E 014°52'0 0.0
2018-Jun-12 11:30N 35°59' E 014°52'0 0.1
2018-Jun-12 10:59N 35°59' E 014°52'0 0.1
2018-Jun-12 10:30N 35°59' E 014°52'0 0.1
2018-Jun-12 10:00N 35°59' E 014°52'0 0.1
2018-Jun-12 09:30N 35°59' E 014°52'0 0.1
2018-Jun-12 09:00N 35°59' E 014°52'0 0.0
2018-Jun-12 08:30N 35°59' E 014°52'0 0.0
2018-Jun-12 07:59N 35°59' E 014°52'0 0.0
2018-Jun-12 07:30N 35°59' E 014°52'0 0.0
2018-Jun-12 06:59N 35°59' E 014°52'0 0.0
2018-Jun-12 06:26N 35°59' E 014°52'0 0.0
2018-Jun-12 06:01N 35°59' E 014°52'0 0.0
2018-Jun-12 05:30N 35°59' E 014°52'0 0.0
2018-Jun-12 04:59N 35°59' E 014°52'0 0.0
2018-Jun-12 04:26N 35°59' E 014°52'0 0.0
2018-Jun-12 04:00N 35°59' E 014°52'0 0.1
2018-Jun-12 03:28N 35°59' E 014°52'0 0.1
2018-Jun-12 03:00N 35°59' E 014°52'0 0.1
2018-Jun-12 02:30N 35°59' E 014°52'0 0.1
2018-Jun-12 02:00N 35°59' E 014°52'0 0.1
2018-Jun-12 01:30N 35°59' E 014°52'0 0.0
2018-Jun-12 01:00N 35°59' E 014°52'0 0.0
2018-Jun-12 00:30N 35°59' E 014°52'0 0.1
2018-Jun-12 00:00N 35°59' E 014°52'  

Dump ship's entire track history